createdAt,value
2023-12-30T00:00:38.437Z,113.57
2023-12-30T00:03:05.828Z,131.00
2023-12-30T00:05:33.141Z,122.50
2023-12-30T00:08:00.112Z,121.40
2023-12-30T00:10:27.181Z,126.93
2023-12-30T00:12:54.219Z,126.18
2023-12-30T00:15:22.307Z,127.25
2023-12-30T00:17:49.458Z,122.85
2023-12-30T00:20:16.477Z,136.20
2023-12-30T00:22:43.368Z,127.82
2023-12-30T00:25:11.538Z,133.50
2023-12-30T00:27:38.834Z,130.27
2023-12-30T00:30:06.703Z,135.45
2023-12-30T00:32:34.185Z,128.88
2023-12-30T00:35:01.317Z,118.80
2023-12-30T00:37:28.454Z,114.05
2023-12-30T00:39:55.531Z,111.57
2023-12-30T00:42:22.502Z,117.40
2023-12-30T00:44:49.497Z,123.05
2023-12-30T00:47:16.463Z,101.97
2023-12-30T00:49:43.424Z,108.35
2023-12-30T00:52:11.190Z,103.15
2023-12-30T00:54:44.620Z,106.95
2023-12-30T00:57:17.394Z,123.60
2023-12-30T00:59:44.287Z,98.60
2023-12-30T01:02:11.456Z,85.25
2023-12-30T01:04:38.569Z,62.13
2023-12-30T01:07:05.630Z,62.78
2023-12-30T01:09:32.729Z,70.95
2023-12-30T01:11:59.792Z,67.65
2023-12-30T01:14:26.778Z,73.47
2023-12-30T01:16:53.762Z,67.10
2023-12-30T01:19:21.280Z,68.05
2023-12-30T01:21:49.225Z,63.70
2023-12-30T01:24:16.888Z,63.60
2023-12-30T01:26:44.503Z,62.25
2023-12-30T01:29:11.743Z,56.47
2023-12-30T01:31:38.695Z,54.30
2023-12-30T01:34:05.739Z,58.50
2023-12-30T01:36:32.711Z,47.72
2023-12-30T01:38:59.660Z,44.22
2023-12-30T01:41:26.722Z,38.63
2023-12-30T01:43:53.622Z,39.50
2023-12-30T01:46:20.741Z,41.65
2023-12-30T01:48:48.136Z,43.13
2023-12-30T01:51:24.584Z,55.38
2023-12-30T01:53:53.880Z,65.43
2023-12-30T01:56:23.022Z,60.25
2023-12-30T01:58:52.811Z,53.75
2023-12-30T02:01:24.164Z,46.80
2023-12-30T02:03:51.688Z,60.67
2023-12-30T02:06:18.711Z,61.28
2023-12-30T02:08:46.651Z,49.05
2023-12-30T02:11:16.098Z,42.33
2023-12-30T02:13:43.854Z,48.40
2023-12-30T02:16:11.774Z,42.67
2023-12-30T02:18:39.686Z,40.33
2023-12-30T02:21:06.819Z,44.38
2023-12-30T02:23:33.743Z,37.97
2023-12-30T02:26:00.679Z,34.33
2023-12-30T02:28:27.788Z,42.63
2023-12-30T02:30:54.894Z,37.50
2023-12-30T02:33:22.001Z,38.42
2023-12-30T02:35:48.935Z,36.80
2023-12-30T02:38:15.927Z,44.85
2023-12-30T02:40:42.823Z,38.65
2023-12-30T02:43:09.843Z,33.35
2023-12-30T02:45:36.942Z,30.05
2023-12-30T02:48:04.422Z,38.60
2023-12-30T02:50:31.394Z,35.65
2023-12-30T02:52:58.364Z,32.13
2023-12-30T02:55:25.427Z,33.33
2023-12-30T02:57:52.475Z,39.67
2023-12-30T03:00:19.817Z,31.70
2023-12-30T03:02:47.307Z,30.30
2023-12-30T03:05:14.720Z,30.23
2023-12-30T03:07:41.998Z,27.67
2023-12-30T03:10:09.647Z,32.70
2023-12-30T03:12:36.779Z,33.42
2023-12-30T03:15:03.903Z,28.27
2023-12-30T03:17:30.965Z,31.55
2023-12-30T03:19:57.949Z,37.72
2023-12-30T03:22:26.129Z,35.92
2023-12-30T03:24:53.312Z,37.10
2023-12-30T03:27:20.322Z,34.45
2023-12-30T03:29:47.293Z,35.15
2023-12-30T03:32:14.659Z,37.92
2023-12-30T03:34:41.677Z,37.20
2023-12-30T03:37:08.684Z,39.65
2023-12-30T03:39:35.665Z,31.45
2023-12-30T03:42:02.644Z,33.35
2023-12-30T03:44:29.548Z,35.08
2023-12-30T03:46:56.792Z,43.63
2023-12-30T03:49:25.269Z,38.08
2023-12-30T03:51:52.302Z,35.72
2023-12-30T03:54:19.405Z,48.63
2023-12-30T03:56:48.298Z,51.63
2023-12-30T03:59:15.247Z,59.08
2023-12-30T04:01:44.353Z,60.90
2023-12-30T04:04:11.592Z,66.90
2023-12-30T04:06:38.872Z,54.38
2023-12-30T04:09:05.827Z,51.90
2023-12-30T04:11:32.869Z,53.75
2023-12-30T04:13:59.890Z,55.80
2023-12-30T04:16:26.840Z,53.58
2023-12-30T04:18:53.930Z,45.97
2023-12-30T04:21:21.233Z,45.60
2023-12-30T04:23:48.192Z,44.00
2023-12-30T04:26:15.111Z,43.50
2023-12-30T04:28:41.991Z,45.42
2023-12-30T04:31:09.164Z,43.65
2023-12-30T04:33:36.682Z,37.55
2023-12-30T04:36:04.038Z,42.35
2023-12-30T04:38:30.967Z,39.10
2023-12-30T04:40:57.862Z,31.30
2023-12-30T04:43:24.864Z,33.03
2023-12-30T04:45:51.957Z,28.25
2023-12-30T04:48:19.006Z,30.42
2023-12-30T04:50:46.131Z,31.05
2023-12-30T04:53:13.059Z,33.50
2023-12-30T04:55:40.110Z,37.38
2023-12-30T04:58:07.153Z,39.35
2023-12-30T05:00:34.826Z,36.83
2023-12-30T05:03:02.057Z,36.75
2023-12-30T05:05:29.323Z,35.28
2023-12-30T05:07:56.413Z,31.02
2023-12-30T05:10:23.429Z,44.10
2023-12-30T05:12:51.190Z,36.10
2023-12-30T05:15:18.337Z,48.70
2023-12-30T05:17:45.563Z,40.47
2023-12-30T05:20:13.996Z,36.10
2023-12-30T05:22:41.770Z,35.28
2023-12-30T05:25:08.962Z,37.50
2023-12-30T05:27:36.702Z,36.88
2023-12-30T05:30:05.247Z,40.63
2023-12-30T05:32:32.376Z,42.47
2023-12-30T05:34:59.419Z,41.92
2023-12-30T05:37:26.555Z,43.25
2023-12-30T05:39:53.447Z,46.40
2023-12-30T05:42:20.640Z,41.30
2023-12-30T05:44:48.932Z,38.92
2023-12-30T05:47:15.998Z,41.58
2023-12-30T05:49:42.921Z,40.35
2023-12-30T05:52:10.098Z,46.13
2023-12-30T05:54:37.030Z,40.35
2023-12-30T05:57:04.245Z,41.30
2023-12-30T05:59:31.216Z,50.70
2023-12-30T06:01:59.959Z,51.97
2023-12-30T06:04:27.212Z,52.47
2023-12-30T06:06:54.309Z,53.47
2023-12-30T06:09:21.309Z,54.10
2023-12-30T06:11:48.845Z,51.92
2023-12-30T06:14:16.802Z,60.63
2023-12-30T06:16:43.822Z,61.28
2023-12-30T06:19:12.175Z,62.40
2023-12-30T06:21:39.834Z,48.85
2023-12-30T06:24:07.021Z,53.95
2023-12-30T06:26:38.264Z,47.38
2023-12-30T06:29:06.818Z,45.72
2023-12-30T06:31:34.166Z,46.17
2023-12-30T06:34:01.232Z,50.08
2023-12-30T06:36:28.187Z,37.53
2023-12-30T06:38:55.123Z,43.50
2023-12-30T06:41:22.117Z,34.45
2023-12-30T06:43:49.442Z,41.03
2023-12-30T06:46:20.120Z,38.63
2023-12-30T06:48:47.803Z,52.63
2023-12-30T06:51:14.933Z,51.80
2023-12-30T06:53:41.825Z,46.67
2023-12-30T06:56:09.435Z,41.25
2023-12-30T06:58:37.122Z,47.25
2023-12-30T07:01:06.073Z,45.75
2023-12-30T07:03:33.596Z,38.95
2023-12-30T07:06:00.587Z,33.75
2023-12-30T07:08:27.616Z,46.50
2023-12-30T07:10:54.612Z,48.95
2023-12-30T07:13:21.768Z,56.67
2023-12-30T07:15:48.929Z,65.10
2023-12-30T07:18:15.971Z,97.63
2023-12-30T07:20:42.979Z,85.47
2023-12-30T07:23:09.975Z,87.45
2023-12-30T07:25:36.984Z,76.47
2023-12-30T07:28:04.276Z,79.82
2023-12-30T07:30:31.279Z,80.05
2023-12-30T07:32:58.400Z,74.95
2023-12-30T07:35:25.566Z,45.47
2023-12-30T07:37:52.506Z,47.17
2023-12-30T07:40:19.474Z,56.58
2023-12-30T07:42:46.445Z,47.65
2023-12-30T07:45:14.075Z,53.53
2023-12-30T07:47:41.071Z,59.30
2023-12-30T07:50:08.829Z,50.72
2023-12-30T07:52:36.154Z,45.45
2023-12-30T07:55:03.226Z,45.08
2023-12-30T07:57:30.186Z,50.58
2023-12-30T07:59:57.288Z,22.80
2023-12-30T08:02:24.335Z,54.28
2023-12-30T08:04:51.333Z,79.80
2023-12-30T08:07:18.481Z,34.15
2023-12-30T08:09:45.457Z,43.38
2023-12-30T08:12:13.068Z,78.47
2023-12-30T08:14:40.010Z,54.03
2023-12-30T08:17:06.956Z,61.05
2023-12-30T08:19:34.013Z,73.80
2023-12-30T08:22:00.987Z,64.68
2023-12-30T08:24:29.884Z,73.38
2023-12-30T08:26:56.990Z,70.32
2023-12-30T08:29:24.101Z,79.38
2023-12-30T08:31:51.148Z,51.25
2023-12-30T08:34:18.476Z,62.50
2023-12-30T08:36:46.156Z,50.72
2023-12-30T08:39:13.821Z,41.50
2023-12-30T08:41:42.692Z,64.13
2023-12-30T08:44:09.974Z,64.57
2023-12-30T08:46:37.475Z,66.30
2023-12-30T08:49:07.374Z,52.03
2023-12-30T08:51:36.132Z,47.80
2023-12-30T08:54:03.241Z,70.82
2023-12-30T08:56:37.387Z,54.13
2023-12-30T08:59:04.441Z,49.97
2023-12-30T09:01:31.897Z,77.57
2023-12-30T09:04:01.145Z,97.70
2023-12-30T09:06:28.277Z,105.65
2023-12-30T09:08:55.162Z,97.93
2023-12-30T09:11:23.506Z,84.45
2023-12-30T09:13:53.144Z,82.78
2023-12-30T09:16:20.426Z,78.55
2023-12-30T09:18:47.795Z,76.15
2023-12-30T09:21:15.113Z,77.03
2023-12-30T09:23:42.349Z,65.78
2023-12-30T09:26:09.704Z,75.90
2023-12-30T09:28:36.909Z,83.20
2023-12-30T09:31:04.387Z,74.13
2023-12-30T09:33:32.180Z,69.82
2023-12-30T09:35:59.814Z,63.50
2023-12-30T09:38:27.238Z,62.42
2023-12-30T09:40:55.787Z,66.40
2023-12-30T09:43:28.154Z,72.47
2023-12-30T09:45:57.211Z,71.47
2023-12-30T09:48:26.831Z,83.15
2023-12-30T09:51:00.854Z,83.72
2023-12-30T09:53:28.337Z,90.72
2023-12-30T09:55:55.781Z,103.80
2023-12-30T09:58:23.852Z,105.72
2023-12-30T10:00:51.435Z,108.95
2023-12-30T10:03:20.269Z,121.20
2023-12-30T10:05:48.598Z,121.45
2023-12-30T10:08:16.918Z,105.47
2023-12-30T10:10:48.424Z,86.55
2023-12-30T10:13:23.749Z,91.97
2023-12-30T10:15:52.544Z,94.85
2023-12-30T10:18:20.657Z,92.93
2023-12-30T10:20:48.475Z,92.55
2023-12-30T10:23:15.793Z,93.72
2023-12-30T10:25:43.132Z,84.65
2023-12-30T10:28:18.492Z,44.40
2023-12-30T10:30:45.731Z,50.13
2023-12-30T10:33:14.855Z,41.47
2023-12-30T10:35:44.822Z,38.80
2023-12-30T10:38:14.255Z,27.02
2023-12-30T10:40:42.046Z,28.05
2023-12-30T10:43:10.226Z,10.48
2023-12-30T10:45:38.723Z,13.73
2023-12-30T10:48:08.201Z,7.15
2023-12-30T10:50:40.301Z,5.38
2023-12-30T10:53:31.022Z,4.53
2023-12-30T10:56:03.739Z,3.90
2023-12-30T10:58:38.319Z,3.58
2023-12-30T11:01:06.427Z,2.78
2023-12-30T11:03:35.411Z,5.78
2023-12-30T11:06:16.505Z,3.53
2023-12-30T11:08:45.338Z,3.08
2023-12-30T11:11:15.846Z,3.95
2023-12-30T11:13:43.579Z,2.85
2023-12-30T11:16:17.392Z,3.05
2023-12-30T11:18:53.541Z,3.58
2023-12-30T11:21:47.974Z,6.05
2023-12-30T11:24:19.041Z,4.68
2023-12-30T11:26:47.347Z,4.22
2023-12-30T11:29:18.337Z,3.55
2023-12-30T11:31:47.421Z,3.38
2023-12-30T11:34:19.118Z,4.15
2023-12-30T11:36:49.619Z,4.18
2023-12-30T11:39:31.321Z,7.45
2023-12-30T11:41:59.733Z,6.43
2023-12-30T11:44:28.951Z,2.60
2023-12-30T11:46:56.135Z,3.35
2023-12-30T11:49:25.368Z,4.40
2023-12-30T11:52:01.446Z,7.22
2023-12-30T11:54:28.498Z,8.82
2023-12-30T11:56:55.532Z,8.93
2023-12-30T11:59:22.505Z,10.85
2023-12-30T12:01:49.501Z,5.32
2023-12-30T12:04:16.583Z,14.30
2023-12-30T12:06:43.589Z,11.05
2023-12-30T12:09:11.552Z,6.43
2023-12-30T12:11:39.544Z,5.57
2023-12-30T12:14:06.473Z,5.57
2023-12-30T12:16:35.355Z,4.18
2023-12-30T12:19:06.236Z,7.15
2023-12-30T12:21:33.315Z,41.15
2023-12-30T12:24:00.245Z,11.25
2023-12-30T12:26:28.069Z,6.22
2023-12-30T12:28:56.646Z,7.10
2023-12-30T12:31:28.969Z,9.40
2023-12-30T12:33:56.091Z,19.58
2023-12-30T12:36:24.080Z,14.05
2023-12-30T12:38:51.644Z,18.02
2023-12-30T12:41:18.583Z,17.85
2023-12-30T12:43:46.134Z,14.43
2023-12-30T12:46:20.936Z,16.58
2023-12-30T12:48:48.098Z,24.35
2023-12-30T12:51:15.106Z,22.33
2023-12-30T12:53:42.749Z,24.42
2023-12-30T12:56:09.954Z,24.42
2023-12-30T12:58:37.026Z,25.65
2023-12-30T13:01:04.942Z,23.55
2023-12-30T13:03:32.121Z,28.77
2023-12-30T13:06:00.974Z,41.70
2023-12-30T13:08:31.190Z,36.42
2023-12-30T13:10:59.343Z,43.88
2023-12-30T13:13:26.639Z,42.45
2023-12-30T13:15:56.172Z,40.92
2023-12-30T13:18:24.021Z,42.05
2023-12-30T13:20:51.159Z,39.90
2023-12-30T13:23:18.230Z,39.22
2023-12-30T13:25:45.631Z,52.78
2023-12-30T13:28:13.307Z,44.72
2023-12-30T13:30:41.796Z,46.63
2023-12-30T13:33:11.846Z,45.60
2023-12-30T13:35:39.876Z,45.40
2023-12-30T13:38:17.078Z,49.10
2023-12-30T13:40:45.712Z,42.17
2023-12-30T13:43:13.458Z,46.30
2023-12-30T13:45:47.915Z,50.75
2023-12-30T13:48:21.882Z,65.15
2023-12-30T13:50:56.068Z,84.20
2023-12-30T13:53:25.395Z,61.20
2023-12-30T13:55:59.598Z,60.03
2023-12-30T13:58:26.730Z,57.17
2023-12-30T14:00:55.854Z,53.00
2023-12-30T14:03:25.005Z,57.72
2023-12-30T14:05:52.138Z,63.83
2023-12-30T14:08:26.384Z,68.90
2023-12-30T14:10:55.294Z,62.08
2023-12-30T14:13:24.640Z,57.67
2023-12-30T14:15:52.822Z,59.55
2023-12-30T14:18:20.464Z,61.00
2023-12-30T14:20:48.088Z,59.33
2023-12-30T14:23:15.488Z,55.92
2023-12-30T14:25:43.198Z,68.15
2023-12-30T14:28:11.184Z,59.50
2023-12-30T14:30:39.949Z,70.03
2023-12-30T14:33:07.648Z,68.13
2023-12-30T14:35:34.958Z,64.03
2023-12-30T14:38:03.846Z,69.38
2023-12-30T14:40:30.901Z,60.47
2023-12-30T14:42:57.997Z,58.88
2023-12-30T14:45:25.057Z,60.67
2023-12-30T14:47:52.111Z,60.80
2023-12-30T14:50:19.212Z,51.95
2023-12-30T14:52:46.280Z,50.15
2023-12-30T14:55:13.693Z,49.47
2023-12-30T14:57:41.926Z,46.67
2023-12-30T15:00:21.566Z,42.65
2023-12-30T15:02:48.753Z,45.20
2023-12-30T15:05:16.525Z,40.65
2023-12-30T15:07:47.545Z,39.58
2023-12-30T15:10:16.628Z,33.05
2023-12-30T15:12:47.327Z,35.53
2023-12-30T15:15:14.991Z,53.45
2023-12-30T15:17:42.686Z,41.33
2023-12-30T15:20:10.485Z,45.00
2023-12-30T15:22:39.196Z,45.28
2023-12-30T15:25:07.130Z,52.90
2023-12-30T15:27:34.353Z,49.20
2023-12-30T15:30:01.490Z,58.80
2023-12-30T15:32:28.667Z,45.05
2023-12-30T15:34:56.057Z,52.25
2023-12-30T15:37:23.740Z,48.90
2023-12-30T15:39:51.064Z,42.35
2023-12-30T15:42:18.064Z,43.28
2023-12-30T15:44:45.054Z,46.22
2023-12-30T15:47:13.160Z,48.42
2023-12-30T15:49:41.613Z,64.90
2023-12-30T15:52:11.162Z,59.15
2023-12-30T15:54:39.767Z,55.88
2023-12-30T15:57:06.952Z,61.38
2023-12-30T15:59:33.891Z,63.88
2023-12-30T16:02:01.413Z,62.08
2023-12-30T16:04:28.940Z,90.63
2023-12-30T16:06:56.807Z,110.07
2023-12-30T16:09:23.750Z,198.23
2023-12-30T16:11:50.785Z,127.93
2023-12-30T16:14:17.701Z,96.40
2023-12-30T16:16:47.931Z,81.32
2023-12-30T16:19:16.800Z,76.78
2023-12-30T16:21:45.921Z,76.60
2023-12-30T16:24:14.650Z,66.57
2023-12-30T16:26:42.071Z,79.07
2023-12-30T16:29:09.726Z,68.43
2023-12-30T16:31:36.740Z,73.72
2023-12-30T16:34:04.855Z,64.25
2023-12-30T16:36:34.250Z,98.95
2023-12-30T16:39:02.278Z,154.55
2023-12-30T16:41:29.534Z,165.38
2023-12-30T16:43:56.540Z,100.03
2023-12-30T16:46:23.591Z,81.20
2023-12-30T16:48:54.689Z,94.30
2023-12-30T16:51:21.932Z,153.68
2023-12-30T16:53:49.202Z,191.38
2023-12-30T16:56:19.461Z,185.38
2023-12-30T16:58:46.574Z,177.05
2023-12-30T17:01:14.355Z,159.15
2023-12-30T17:03:41.388Z,125.40
2023-12-30T17:06:08.421Z,125.53
2023-12-30T17:08:35.372Z,213.45
2023-12-30T17:11:02.333Z,115.68
2023-12-30T17:13:35.275Z,115.55
2023-12-30T17:16:07.373Z,102.50
2023-12-30T17:18:34.418Z,69.18
2023-12-30T17:21:01.294Z,86.93
2023-12-30T17:23:28.206Z,116.20
2023-12-30T17:25:55.166Z,486.55
2023-12-30T17:28:22.529Z,232.73
2023-12-30T17:30:49.822Z,121.45
2023-12-30T17:33:17.001Z,141.40
2023-12-30T17:35:44.429Z,175.75
2023-12-30T17:38:11.508Z,248.63
2023-12-30T17:40:38.824Z,230.00
2023-12-30T17:43:06.440Z,232.55
2023-12-30T17:45:33.550Z,301.80
2023-12-30T17:48:00.521Z,355.08
2023-12-30T17:50:27.567Z,320.67
2023-12-30T17:52:54.526Z,290.33
2023-12-30T17:55:21.671Z,258.05
2023-12-30T17:57:48.816Z,253.93
2023-12-30T18:00:17.469Z,296.23
2023-12-30T18:02:44.540Z,263.85
2023-12-30T18:05:13.008Z,265.95
2023-12-30T18:07:40.230Z,248.45
2023-12-30T18:10:07.682Z,187.75
2023-12-30T18:12:34.717Z,213.00
2023-12-30T18:15:01.751Z,193.40
2023-12-30T18:17:28.924Z,174.38
2023-12-30T18:19:56.129Z,200.18
2023-12-30T18:22:23.193Z,268.92
2023-12-30T18:24:50.346Z,220.50
2023-12-30T18:27:17.316Z,174.93
2023-12-30T18:29:44.537Z,214.68
2023-12-30T18:32:12.033Z,287.80
2023-12-30T18:34:41.170Z,268.33
2023-12-30T18:37:15.088Z,279.52
2023-12-30T18:39:42.454Z,246.38
2023-12-30T18:42:09.866Z,248.50
2023-12-30T18:44:36.914Z,225.55
2023-12-30T18:47:03.865Z,226.05
2023-12-30T18:49:31.175Z,190.70
2023-12-30T18:51:58.451Z,147.70
2023-12-30T18:54:25.353Z,187.50
2023-12-30T18:56:52.314Z,201.32
2023-12-30T18:59:19.317Z,201.57
2023-12-30T19:01:47.049Z,219.95
2023-12-30T19:04:14.731Z,224.32
2023-12-30T19:06:41.748Z,215.23
2023-12-30T19:09:09.840Z,216.98
2023-12-30T19:11:36.800Z,203.40
2023-12-30T19:14:04.200Z,216.80
2023-12-30T19:16:31.467Z,205.90
2023-12-30T19:18:59.250Z,223.52
2023-12-30T19:21:26.526Z,168.10
2023-12-30T19:23:53.703Z,196.32
2023-12-30T19:26:20.815Z,207.75
2023-12-30T19:28:47.886Z,190.15
2023-12-30T19:31:15.065Z,191.05
2023-12-30T19:33:43.284Z,201.20
2023-12-30T19:36:11.573Z,171.38
2023-12-30T19:38:39.260Z,213.13
2023-12-30T19:41:06.226Z,219.10
2023-12-30T19:43:35.329Z,226.45
2023-12-30T19:46:06.899Z,210.60
2023-12-30T19:48:37.112Z,204.27
2023-12-30T19:51:05.512Z,197.98
2023-12-30T19:53:34.118Z,174.05
2023-12-30T19:56:02.692Z,167.93
2023-12-30T19:58:32.052Z,154.20
2023-12-30T20:00:59.340Z,160.52
2023-12-30T20:03:26.781Z,150.60
2023-12-30T20:05:54.054Z,148.55
2023-12-30T20:08:21.202Z,170.93
2023-12-30T20:10:49.013Z,186.38
2023-12-30T20:13:16.139Z,194.50
2023-12-30T20:15:43.516Z,198.88
2023-12-30T20:18:10.581Z,221.48
2023-12-30T20:20:37.743Z,285.73
2023-12-30T20:23:04.931Z,200.25
2023-12-30T20:25:32.702Z,183.23
2023-12-30T20:27:59.861Z,189.05
2023-12-30T20:30:31.773Z,198.45
2023-12-30T20:32:59.988Z,229.20
2023-12-30T20:35:27.110Z,220.48
2023-12-30T20:37:54.060Z,240.95
2023-12-30T20:40:21.126Z,190.15
2023-12-30T20:42:48.051Z,170.02
2023-12-30T20:45:15.928Z,157.00
2023-12-30T20:47:42.847Z,175.95
2023-12-30T20:50:09.958Z,170.35
2023-12-30T20:52:39.796Z,177.85
2023-12-30T20:55:07.735Z,193.40
2023-12-30T20:57:35.393Z,202.35
2023-12-30T21:00:02.557Z,217.15
2023-12-30T21:02:29.646Z,220.55
2023-12-30T21:04:58.081Z,201.05
2023-12-30T21:07:25.237Z,200.02
2023-12-30T21:09:52.288Z,173.07
2023-12-30T21:12:26.508Z,159.02
2023-12-30T21:14:53.689Z,157.73
2023-12-30T21:17:20.670Z,149.38
2023-12-30T21:19:49.612Z,156.35
2023-12-30T21:22:16.720Z,153.82
2023-12-30T21:24:43.716Z,135.73
2023-12-30T21:27:11.975Z,164.65
2023-12-30T21:29:40.945Z,163.57
2023-12-30T21:32:08.978Z,153.77
2023-12-30T21:34:36.495Z,190.52
2023-12-30T21:37:03.628Z,196.60
2023-12-30T21:39:30.631Z,183.68
2023-12-30T21:41:58.357Z,173.98
2023-12-30T21:44:25.232Z,184.57
2023-12-30T21:46:52.228Z,203.10
2023-12-30T21:49:19.902Z,232.63
2023-12-30T21:51:47.061Z,223.18
2023-12-30T21:54:14.992Z,240.02
2023-12-30T21:56:42.794Z,244.43
2023-12-30T21:59:10.886Z,229.32
2023-12-30T22:01:38.075Z,256.30
2023-12-30T22:04:05.634Z,209.43
2023-12-30T22:06:33.990Z,192.77
2023-12-30T22:09:01.248Z,184.32
2023-12-30T22:11:28.775Z,188.50
2023-12-30T22:13:57.062Z,182.65
2023-12-30T22:16:24.266Z,161.48
2023-12-30T22:18:51.464Z,177.98
2023-12-30T22:21:19.019Z,173.32
2023-12-30T22:23:46.383Z,177.50
2023-12-30T22:26:13.393Z,142.55
2023-12-30T22:28:40.365Z,128.82
2023-12-30T22:31:09.055Z,120.45
2023-12-30T22:33:37.145Z,122.35
2023-12-30T22:36:04.491Z,114.18
2023-12-30T22:38:31.646Z,110.30
2023-12-30T22:40:58.706Z,126.18
2023-12-30T22:43:25.778Z,116.93
2023-12-30T22:45:52.798Z,117.78
2023-12-30T22:48:22.861Z,109.32
2023-12-30T22:50:53.084Z,99.30
2023-12-30T22:53:20.082Z,103.38
2023-12-30T22:55:47.174Z,110.18
2023-12-30T22:58:14.130Z,79.68
2023-12-30T23:00:41.167Z,65.18
2023-12-30T23:03:08.529Z,59.17
2023-12-30T23:05:37.905Z,57.40
2023-12-30T23:08:05.175Z,56.05
2023-12-30T23:10:33.591Z,66.18
2023-12-30T23:13:01.540Z,55.53
2023-12-30T23:15:28.743Z,62.03
2023-12-30T23:17:56.483Z,58.65
2023-12-30T23:20:26.765Z,46.22
2023-12-30T23:22:53.770Z,56.92
2023-12-30T23:25:20.720Z,34.13
2023-12-30T23:27:50.630Z,37.63
2023-12-30T23:30:17.643Z,32.53
2023-12-30T23:32:47.515Z,34.65
2023-12-30T23:35:14.572Z,25.15
2023-12-30T23:37:41.535Z,33.17
2023-12-30T23:40:10.073Z,28.08
2023-12-30T23:42:37.137Z,20.17
2023-12-30T23:45:06.081Z,23.17
2023-12-30T23:47:33.135Z,15.07
2023-12-30T23:50:00.173Z,12.88
2023-12-30T23:52:27.498Z,14.02
2023-12-30T23:54:55.418Z,14.57
2023-12-30T23:57:22.505Z,15.70
2023-12-30T23:59:49.582Z,20.15
